createdAt,value
2019-05-26T00:00:56.306Z,12.50
2019-05-26T00:01:56.363Z,10.00
2019-05-26T00:02:56.354Z,11.10
2019-05-26T00:03:56.226Z,10.20
2019-05-26T00:04:56.249Z,10.80
2019-05-26T00:05:56.201Z,12.50
2019-05-26T00:06:56.249Z,12.70
2019-05-26T00:07:56.214Z,13.80
2019-05-26T00:08:56.257Z,12.20
2019-05-26T00:09:56.159Z,14.60
2019-05-26T00:10:56.178Z,12.10
2019-05-26T00:11:56.130Z,14.20
2019-05-26T00:12:56.255Z,13.40
2019-05-26T00:13:56.110Z,11.60
2019-05-26T00:14:56.209Z,13.30
2019-05-26T00:15:56.096Z,11.80
2019-05-26T00:16:56.112Z,10.90
2019-05-26T00:17:56.080Z,13.30
2019-05-26T00:18:57.178Z,11.50
2019-05-26T00:19:56.040Z,11.00
2019-05-26T00:20:56.140Z,11.10
2019-05-26T00:21:56.025Z,10.90
2019-05-26T00:22:56.051Z,12.00
2019-05-26T00:23:56.577Z,12.60
2019-05-26T00:24:56.070Z,13.40
2019-05-26T00:25:55.978Z,14.60
2019-05-26T00:26:56.086Z,13.40
2019-05-26T00:27:55.952Z,12.50
2019-05-26T00:28:56.032Z,12.00
2019-05-26T00:29:55.933Z,12.00
2019-05-26T00:30:56.005Z,12.50
2019-05-26T00:31:55.914Z,11.70
2019-05-26T00:32:56.023Z,11.00
2019-05-26T00:33:55.926Z,10.00
2019-05-26T00:34:55.948Z,10.10
2019-05-26T00:35:55.860Z,10.90
2019-05-26T00:36:55.978Z,13.50
2019-05-26T00:37:55.852Z,13.60
2019-05-26T00:38:55.991Z,12.10
2019-05-26T00:39:55.825Z,14.20
2019-05-26T00:40:55.978Z,12.80
2019-05-26T00:41:55.805Z,13.30
2019-05-26T00:42:55.991Z,13.40
2019-05-26T00:43:55.789Z,12.80
2019-05-26T00:44:55.839Z,12.30
2019-05-26T00:45:55.767Z,16.20
2019-05-26T00:46:55.812Z,13.30
2019-05-26T00:47:55.735Z,14.80
2019-05-26T00:48:55.832Z,12.20
2019-05-26T00:49:55.738Z,13.60
2019-05-26T00:50:55.735Z,12.50
2019-05-26T00:51:55.691Z,18.40
2019-05-26T00:52:56.696Z,11.40
2019-05-26T00:53:55.685Z,12.40
2019-05-26T00:54:55.796Z,13.40
2019-05-26T00:55:55.646Z,14.00
2019-05-26T00:56:55.682Z,15.40
2019-05-26T00:57:55.620Z,14.10
2019-05-26T00:58:55.720Z,14.60
2019-05-26T00:59:55.620Z,12.90
2019-05-26T01:00:55.703Z,15.60
2019-05-26T01:01:55.603Z,11.70
2019-05-26T01:02:55.627Z,13.10
2019-05-26T01:03:55.553Z,10.30
2019-05-26T01:04:55.663Z,12.80
2019-05-26T01:05:55.548Z,16.20
2019-05-26T01:06:55.639Z,13.60
2019-05-26T01:08:05.783Z,12.60
2019-05-26T01:08:56.502Z,12.20
2019-05-26T01:09:55.600Z,13.50
2019-05-26T01:10:55.497Z,14.50
2019-05-26T01:11:55.582Z,13.60
2019-05-26T01:12:55.458Z,13.20
2019-05-26T01:13:55.489Z,14.30
2019-05-26T01:14:55.471Z,14.40
2019-05-26T01:15:55.502Z,14.20
2019-05-26T01:16:56.125Z,13.70
2019-05-26T01:17:55.518Z,15.00
2019-05-26T01:18:55.385Z,14.00
2019-05-26T01:19:55.458Z,11.30
2019-05-26T01:20:55.369Z,16.90
2019-05-26T01:21:55.446Z,14.20
2019-05-26T01:22:55.345Z,12.00
2019-05-26T01:23:55.462Z,15.10
2019-05-26T01:24:55.374Z,14.60
2019-05-26T01:25:55.398Z,15.00
2019-05-26T01:26:55.305Z,12.30
2019-05-26T01:27:55.387Z,12.50
2019-05-26T01:28:55.296Z,13.30
2019-05-26T01:29:55.290Z,15.40
2019-05-26T01:30:55.290Z,15.30
2019-05-26T01:31:55.314Z,14.50
2019-05-26T01:32:55.239Z,15.60
2019-05-26T01:33:55.321Z,12.00
2019-05-26T01:34:55.213Z,17.10
2019-05-26T01:35:55.283Z,13.60
2019-05-26T01:36:55.188Z,12.90
2019-05-26T01:37:55.263Z,15.80
2019-05-26T01:38:55.167Z,13.10
2019-05-26T01:39:55.258Z,14.10
2019-05-26T01:40:55.169Z,13.00
2019-05-26T01:41:55.173Z,16.10
2019-05-26T01:42:55.127Z,13.50
2019-05-26T01:43:55.188Z,13.20
2019-05-26T01:44:55.101Z,16.40
2019-05-26T01:45:55.342Z,14.50
2019-05-26T01:46:55.082Z,13.00
2019-05-26T01:47:55.114Z,14.90
2019-05-26T01:48:55.060Z,14.30
2019-05-26T01:49:55.127Z,13.80
2019-05-26T01:50:55.066Z,15.80
2019-05-26T01:51:55.156Z,14.00
2019-05-26T01:52:55.038Z,13.00
2019-05-26T01:53:55.060Z,12.10
2019-05-26T01:54:54.986Z,16.40
2019-05-26T01:55:55.199Z,16.80
2019-05-26T01:56:55.007Z,18.40
2019-05-26T01:57:55.081Z,13.60
2019-05-26T01:58:54.935Z,16.10
2019-05-26T01:59:55.006Z,16.30
2019-05-26T02:00:54.930Z,14.80
2019-05-26T02:01:58.582Z,16.50
2019-05-26T02:02:54.900Z,18.80
2019-05-26T02:03:54.926Z,15.00
2019-05-26T02:04:54.885Z,15.30
2019-05-26T02:05:54.929Z,17.00
2019-05-26T02:06:54.885Z,13.30
2019-05-26T02:07:54.967Z,14.30
2019-05-26T02:08:54.836Z,16.90
2019-05-26T02:09:54.829Z,13.90
2019-05-26T02:10:54.816Z,13.40
2019-05-26T02:11:54.914Z,14.00
2019-05-26T02:12:54.800Z,15.70
2019-05-26T02:13:54.883Z,14.60
2019-05-26T02:14:54.789Z,12.90
2019-05-26T02:15:54.804Z,12.50
2019-05-26T02:16:54.787Z,15.30
2019-05-26T02:17:54.850Z,14.80
2019-05-26T02:18:54.719Z,15.90
2019-05-26T02:19:54.831Z,15.00
2019-05-26T02:20:54.717Z,15.90
2019-05-26T02:21:54.737Z,15.70
2019-05-26T02:22:54.714Z,15.30
2019-05-26T02:23:54.758Z,17.10
2019-05-26T02:24:54.656Z,18.50
2019-05-26T02:25:54.771Z,16.10
2019-05-26T02:26:54.629Z,16.50
2019-05-26T02:27:54.704Z,16.90
2019-05-26T02:28:54.619Z,14.10
2019-05-26T02:29:54.743Z,15.10
2019-05-26T02:30:54.597Z,15.80
2019-05-26T02:31:54.700Z,16.30
2019-05-26T02:32:54.610Z,15.70
2019-05-26T02:33:54.607Z,15.90
2019-05-26T02:34:54.548Z,15.60
2019-05-26T02:35:54.637Z,13.70
2019-05-26T02:36:54.521Z,15.60
2019-05-26T02:37:54.573Z,15.90
2019-05-26T02:39:01.939Z,14.60
2019-05-26T02:39:55.519Z,17.60
2019-05-26T02:40:54.589Z,16.50
2019-05-26T02:41:54.470Z,15.80
2019-05-26T02:42:54.611Z,18.70
2019-05-26T02:43:54.446Z,17.80
2019-05-26T02:44:59.116Z,17.40
2019-05-26T02:45:55.420Z,18.60
2019-05-26T02:46:54.509Z,17.80
2019-05-26T02:47:54.415Z,18.40
2019-05-26T02:48:54.443Z,17.80
2019-05-26T02:49:54.379Z,16.10
2019-05-26T02:50:54.436Z,16.50
2019-05-26T02:51:54.361Z,18.40
2019-05-26T02:52:54.452Z,16.20
2019-05-26T02:53:54.358Z,24.00
2019-05-26T02:55:55.443Z,19.30
2019-05-26T02:56:54.369Z,20.40
2019-05-26T02:57:54.305Z,19.10
2019-05-26T02:59:05.077Z,23.70
2019-05-26T02:59:54.273Z,20.20
2019-05-26T03:00:54.303Z,20.30
2019-05-26T03:02:03.119Z,19.70
2019-05-26T03:02:55.232Z,22.40
2019-05-26T03:03:54.361Z,22.70
2019-05-26T03:04:54.220Z,20.60
2019-05-26T03:05:54.326Z,21.80
2019-05-26T03:06:54.186Z,20.50
2019-05-26T03:07:54.239Z,20.60
2019-05-26T03:08:54.169Z,22.70
2019-05-26T03:09:54.279Z,18.60
2019-05-26T03:10:54.149Z,19.00
2019-05-26T03:11:54.175Z,22.70
2019-05-26T03:12:54.128Z,21.30
2019-05-26T03:13:54.192Z,19.10
2019-05-26T03:14:54.142Z,23.10
2019-05-26T03:16:55.222Z,21.30
2019-05-26T03:17:54.109Z,20.90
2019-05-26T03:18:54.091Z,20.70
2019-05-26T03:19:54.171Z,24.40
2019-05-26T03:20:54.038Z,24.00
2019-05-26T03:22:55.206Z,21.30
2019-05-26T03:23:54.002Z,21.80
2019-05-26T03:24:54.079Z,21.10
2019-05-26T03:25:53.980Z,24.50
2019-05-26T03:26:54.080Z,22.30
2019-05-26T03:27:53.965Z,20.70
2019-05-26T03:28:53.982Z,22.40
2019-05-26T03:29:53.992Z,19.00
2019-05-26T03:30:53.997Z,21.90
2019-05-26T03:31:53.913Z,20.90
2019-05-26T03:32:54.008Z,22.00
2019-05-26T03:33:53.899Z,23.30
2019-05-26T03:34:53.941Z,20.90
2019-05-26T03:35:53.881Z,22.10
2019-05-26T03:36:53.932Z,21.50
2019-05-26T03:37:53.852Z,21.60
2019-05-26T03:38:53.954Z,22.10
2019-05-26T03:39:53.843Z,20.90
2019-05-26T03:40:53.883Z,21.20
2019-05-26T03:41:53.805Z,22.70
2019-05-26T03:42:53.879Z,20.80
2019-05-26T03:43:53.808Z,22.10
2019-05-26T03:44:53.892Z,22.90
2019-05-26T03:45:53.788Z,23.80
2019-05-26T03:46:53.799Z,23.60
2019-05-26T03:47:53.732Z,27.10
2019-05-26T03:48:53.812Z,23.90
2019-05-26T03:49:53.716Z,23.40
2019-05-26T03:50:53.850Z,21.60
2019-05-26T03:51:53.708Z,23.00
2019-05-26T03:52:53.744Z,26.70
2019-05-26T03:53:53.805Z,23.90
2019-05-26T03:54:53.760Z,22.60
2019-05-26T03:55:53.684Z,22.60
2019-05-26T03:56:53.782Z,24.20
2019-05-26T03:57:53.660Z,22.70
2019-05-26T03:58:53.668Z,24.20
2019-05-26T03:59:53.611Z,22.40
2019-05-26T04:00:53.723Z,21.60
2019-05-26T04:01:57.520Z,25.00
2019-05-26T04:02:53.612Z,20.30
2019-05-26T04:03:53.569Z,25.40
2019-05-26T04:04:53.617Z,22.50
2019-05-26T04:05:53.569Z,24.60
2019-05-26T04:06:53.627Z,27.60
2019-05-26T04:07:53.517Z,27.80
2019-05-26T04:08:53.633Z,24.50
2019-05-26T04:10:04.419Z,27.30
2019-05-26T04:10:54.578Z,25.40
2019-05-26T04:11:53.598Z,27.40
2019-05-26T04:12:53.461Z,26.60
2019-05-26T04:13:53.591Z,25.90
2019-05-26T04:14:53.462Z,25.60
2019-05-26T04:15:53.497Z,26.10
2019-05-26T04:16:56.209Z,25.00
2019-05-26T04:17:53.510Z,24.30
2019-05-26T04:18:53.395Z,25.40
2019-05-26T04:19:53.407Z,28.00
2019-05-26T04:20:53.371Z,27.00
2019-05-26T04:21:53.514Z,26.80
2019-05-26T04:22:53.353Z,30.10
2019-05-26T04:23:53.436Z,28.60
2019-05-26T04:24:53.427Z,27.40
2019-05-26T04:25:53.362Z,29.10
2019-05-26T04:26:53.338Z,30.30
2019-05-26T04:27:53.397Z,28.90
2019-05-26T04:28:53.315Z,26.90
2019-05-26T04:29:53.397Z,28.90
2019-05-26T04:30:53.264Z,30.10
2019-05-26T04:31:53.333Z,29.20
2019-05-26T04:32:53.240Z,26.90
2019-05-26T04:33:53.303Z,27.90
2019-05-26T04:34:53.227Z,27.90
2019-05-26T04:35:53.321Z,31.30
2019-05-26T04:36:53.247Z,35.60
2019-05-26T04:37:53.240Z,31.00
2019-05-26T04:38:53.170Z,32.70
2019-05-26T04:39:53.245Z,28.50
2019-05-26T04:40:53.143Z,28.50
2019-05-26T04:41:53.357Z,34.20
2019-05-26T04:42:53.169Z,32.70
2019-05-26T04:43:53.180Z,27.90
2019-05-26T04:44:53.113Z,32.00
2019-05-26T04:45:53.181Z,32.60
2019-05-26T04:46:53.112Z,29.70
2019-05-26T04:47:53.199Z,32.50
2019-05-26T04:48:53.093Z,30.90
2019-05-26T04:49:53.111Z,31.50
2019-05-26T04:50:53.081Z,32.20
2019-05-26T04:51:53.151Z,28.10
2019-05-26T04:53:05.280Z,31.80
2019-05-26T04:53:54.039Z,32.30
2019-05-26T04:54:53.039Z,31.80
2019-05-26T04:55:53.043Z,35.30
2019-05-26T04:56:53.094Z,33.50
2019-05-26T04:57:52.991Z,32.70
2019-05-26T04:58:53.083Z,31.10
2019-05-26T04:59:52.938Z,35.90
2019-05-26T05:00:53.000Z,38.00
2019-05-26T05:01:52.933Z,36.10
2019-05-26T05:02:53.035Z,34.80
2019-05-26T05:03:52.900Z,35.00
2019-05-26T05:04:53.020Z,34.90
2019-05-26T05:05:52.877Z,37.70
2019-05-26T05:06:52.922Z,35.20
2019-05-26T05:07:52.931Z,34.90
2019-05-26T05:08:52.932Z,34.90
2019-05-26T05:09:52.827Z,37.30
2019-05-26T05:10:52.845Z,38.70
2019-05-26T05:11:52.830Z,37.50
2019-05-26T05:12:52.888Z,41.60
2019-05-26T05:13:52.794Z,37.70
2019-05-26T05:14:52.889Z,37.10
2019-05-26T05:15:52.766Z,38.00
2019-05-26T05:16:52.792Z,39.70
2019-05-26T05:17:52.794Z,37.50
2019-05-26T05:18:52.801Z,38.40
2019-05-26T05:19:52.722Z,40.40
2019-05-26T05:20:52.812Z,40.60
2019-05-26T05:21:52.731Z,36.10
2019-05-26T05:22:52.756Z,41.00
2019-05-26T05:23:52.682Z,39.60
2019-05-26T05:24:52.750Z,40.50
2019-05-26T05:25:52.650Z,40.80
2019-05-26T05:26:52.780Z,41.50
2019-05-26T05:27:52.626Z,40.30
2019-05-26T05:28:52.692Z,41.90
2019-05-26T05:29:52.660Z,40.00
2019-05-26T05:30:52.677Z,41.30
2019-05-26T05:31:52.581Z,39.30
2019-05-26T05:32:52.689Z,39.50
2019-05-26T05:33:52.582Z,42.10
2019-05-26T05:34:52.604Z,41.80
2019-05-26T05:35:52.566Z,41.90
2019-05-26T05:36:52.635Z,40.40
2019-05-26T05:37:52.551Z,42.40
2019-05-26T05:38:52.564Z,40.10
2019-05-26T05:39:52.509Z,41.20
2019-05-26T05:40:59.379Z,43.10
2019-05-26T05:41:53.471Z,42.10
2019-05-26T05:42:52.557Z,40.80
2019-05-26T05:43:52.474Z,40.50
2019-05-26T05:44:52.478Z,43.80
2019-05-26T05:45:52.478Z,43.60
2019-05-26T05:46:52.532Z,39.70
2019-05-26T05:47:52.451Z,41.70
2019-05-26T05:48:52.531Z,43.80
2019-05-26T05:49:52.435Z,43.30
2019-05-26T05:50:52.407Z,38.80
2019-05-26T05:51:52.378Z,40.20
2019-05-26T05:52:52.423Z,40.60
2019-05-26T05:53:52.388Z,38.40
2019-05-26T05:54:52.445Z,40.80
2019-05-26T05:55:52.355Z,43.80
2019-05-26T05:56:55.486Z,40.80
2019-05-26T05:57:52.417Z,41.10
2019-05-26T05:58:52.389Z,44.50
2019-05-26T05:59:52.334Z,44.70
2019-05-26T06:00:52.382Z,43.00
2019-05-26T06:01:52.252Z,44.40
2019-05-26T06:02:52.292Z,38.00
2019-05-26T06:03:52.238Z,43.80
2019-05-26T06:04:52.334Z,42.60
2019-05-26T06:05:52.202Z,42.20
2019-05-26T06:06:52.317Z,47.10
2019-05-26T06:07:52.182Z,45.10
2019-05-26T06:08:52.224Z,41.20
2019-05-26T06:09:52.230Z,43.20
2019-05-26T06:10:52.233Z,44.10
2019-05-26T06:11:56.485Z,42.60
2019-05-26T06:12:52.279Z,42.20
2019-05-26T06:13:52.122Z,41.10
2019-05-26T06:14:52.367Z,42.30
2019-05-26T06:15:52.095Z,39.90
2019-05-26T06:16:52.279Z,44.90
2019-05-26T06:17:52.106Z,41.30
2019-05-26T06:18:52.395Z,42.30
2019-05-26T06:19:52.112Z,42.90
2019-05-26T06:20:52.449Z,41.00
2019-05-26T06:21:52.038Z,41.60
2019-05-26T06:22:52.431Z,41.70
2019-05-26T06:23:52.017Z,40.50
2019-05-26T06:24:53.695Z,40.60
2019-05-26T06:25:52.001Z,43.90
2019-05-26T06:27:53.487Z,42.80
2019-05-26T06:28:54.173Z,41.50
2019-05-26T06:29:58.920Z,39.40
2019-05-26T06:30:55.036Z,39.20
2019-05-26T06:31:51.983Z,38.90
2019-05-26T06:33:52.511Z,40.80
2019-05-26T06:34:52.012Z,39.90
2019-05-26T06:36:53.015Z,41.60
2019-05-26T06:38:53.486Z,42.70
2019-05-26T06:39:52.337Z,39.80
2019-05-26T06:40:51.857Z,42.50
2019-05-26T06:42:53.116Z,39.60
2019-05-26T06:43:52.279Z,41.00
2019-05-26T06:44:53.865Z,40.30
2019-05-26T06:45:53.545Z,39.80
2019-05-26T06:46:51.781Z,41.10
2019-05-26T06:48:52.875Z,37.90
2019-05-26T06:50:53.466Z,38.40
2019-05-26T06:52:53.015Z,39.30
2019-05-26T06:54:52.921Z,42.60
2019-05-26T06:55:53.654Z,39.20
2019-05-26T06:56:51.793Z,39.50
2019-05-26T06:57:53.693Z,41.60
2019-05-26T06:58:51.718Z,40.60
2019-05-26T06:59:53.808Z,39.90
2019-05-26T07:00:51.689Z,38.00
2019-05-26T07:01:53.966Z,39.20
2019-05-26T07:02:51.603Z,38.70
2019-05-26T07:04:52.682Z,37.20
2019-05-26T07:05:53.959Z,39.00
2019-05-26T07:06:51.606Z,40.00
2019-05-26T07:07:53.970Z,37.40
2019-05-26T07:08:51.515Z,37.90
2019-05-26T07:10:52.705Z,40.40
2019-05-26T07:11:59.716Z,42.80
2019-05-26T07:12:52.527Z,40.70
2019-05-26T07:14:53.010Z,41.10
2019-05-26T07:15:56.524Z,37.40
2019-05-26T07:16:51.417Z,41.10
2019-05-26T07:18:53.036Z,41.40
2019-05-26T07:20:53.024Z,39.40
2019-05-26T07:22:52.971Z,40.80
2019-05-26T07:23:55.212Z,41.00
2019-05-26T07:24:51.519Z,42.10
2019-05-26T07:26:52.815Z,42.50
2019-05-26T07:28:51.319Z,44.20
2019-05-26T07:29:55.155Z,43.10
2019-05-26T07:30:51.322Z,44.10
2019-05-26T07:31:55.162Z,39.90
2019-05-26T07:32:51.243Z,45.40
2019-05-26T07:34:52.365Z,41.00
2019-05-26T07:36:51.268Z,41.30
2019-05-26T07:38:51.268Z,43.40
2019-05-26T07:40:51.287Z,41.10
2019-05-26T07:42:09.354Z,40.70
2019-05-26T07:42:52.251Z,41.50
2019-05-26T07:43:53.201Z,38.00
2019-05-26T07:44:51.135Z,38.90
2019-05-26T07:45:53.330Z,39.20
2019-05-26T07:46:51.166Z,36.20
2019-05-26T07:48:52.244Z,37.30
2019-05-26T07:49:51.127Z,40.40
2019-05-26T07:50:51.038Z,37.00
2019-05-26T07:51:51.098Z,37.20
2019-05-26T07:52:51.063Z,34.50
2019-05-26T07:53:51.114Z,37.10
2019-05-26T07:54:51.824Z,37.50
2019-05-26T07:55:51.027Z,37.00
2019-05-26T07:56:51.030Z,38.50
2019-05-26T07:57:50.998Z,35.60
2019-05-26T07:58:51.053Z,35.40
2019-05-26T07:59:50.959Z,32.70
2019-05-26T08:00:51.118Z,34.20
2019-05-26T08:01:50.959Z,32.40
2019-05-26T08:02:51.123Z,37.50
2019-05-26T08:03:50.900Z,33.40
2019-05-26T08:04:51.113Z,32.30
2019-05-26T08:05:50.875Z,31.90
2019-05-26T08:06:51.109Z,31.30
2019-05-26T08:07:50.876Z,33.00
2019-05-26T08:08:51.062Z,31.50
2019-05-26T08:09:50.812Z,30.10
2019-05-26T08:10:51.035Z,26.10
2019-05-26T08:11:50.795Z,28.70
2019-05-26T08:12:50.882Z,26.40
2019-05-26T08:13:50.801Z,26.30
2019-05-26T08:14:50.933Z,27.60
2019-05-26T08:15:50.774Z,27.30
2019-05-26T08:16:50.885Z,29.90
2019-05-26T08:17:50.850Z,27.10
2019-05-26T08:19:51.912Z,27.90
2019-05-26T08:20:50.914Z,30.40
2019-05-26T08:21:53.848Z,28.30
2019-05-26T08:22:50.861Z,26.70
2019-05-26T08:23:50.710Z,28.10
2019-05-26T08:24:50.713Z,29.40
2019-05-26T08:25:50.701Z,30.10
2019-05-26T08:26:50.937Z,31.10
2019-05-26T08:27:50.621Z,25.70
2019-05-26T08:28:50.695Z,26.60
2019-05-26T08:29:50.625Z,25.00
2019-05-26T08:30:51.093Z,23.40
2019-05-26T08:31:50.589Z,24.80
2019-05-26T08:33:51.711Z,25.40
2019-05-26T08:34:50.584Z,25.70
2019-05-26T08:35:50.528Z,24.00
2019-05-26T08:36:50.716Z,23.40
2019-05-26T08:38:51.706Z,24.30
2019-05-26T08:39:50.631Z,23.40
2019-05-26T08:40:50.658Z,21.60
2019-05-26T08:41:50.611Z,20.80
2019-05-26T08:42:50.674Z,20.90
2019-05-26T08:43:50.626Z,20.20
2019-05-26T08:44:50.596Z,22.00
2019-05-26T08:45:50.502Z,21.30
2019-05-26T08:46:50.508Z,19.60
2019-05-26T08:47:50.407Z,18.50
2019-05-26T08:48:50.497Z,19.00
2019-05-26T08:49:50.416Z,19.70
2019-05-26T08:50:50.628Z,18.10
2019-05-26T08:51:50.361Z,18.60
2019-05-26T08:52:50.410Z,16.00
2019-05-26T08:53:50.525Z,14.80
2019-05-26T08:54:50.460Z,17.70
2019-05-26T08:55:50.325Z,16.00
2019-05-26T08:56:50.430Z,17.70
2019-05-26T08:57:50.294Z,16.30
2019-05-26T08:58:50.347Z,14.90
2019-05-26T08:59:50.343Z,15.80
2019-05-26T09:00:50.357Z,16.30
2019-05-26T09:01:50.259Z,13.70
2019-05-26T09:02:51.824Z,15.00
2019-05-26T09:03:50.238Z,16.30
2019-05-26T09:04:50.320Z,15.90
2019-05-26T09:05:50.266Z,14.90
2019-05-26T09:06:50.294Z,13.70
2019-05-26T09:07:50.236Z,15.10
2019-05-26T09:08:50.266Z,15.20
2019-05-26T09:09:50.159Z,16.10
2019-05-26T09:10:50.362Z,16.40
2019-05-26T09:11:50.144Z,14.10
2019-05-26T09:13:00.196Z,16.00
2019-05-26T09:13:51.124Z,17.10
2019-05-26T09:14:50.143Z,16.60
2019-05-26T09:15:50.195Z,14.20
2019-05-26T09:16:50.162Z,16.10
2019-05-26T09:17:50.105Z,17.60
2019-05-26T09:18:50.174Z,15.20
2019-05-26T09:19:50.061Z,16.50
2019-05-26T09:20:50.248Z,13.50
2019-05-26T09:21:50.030Z,17.20
2019-05-26T09:22:50.111Z,14.50
2019-05-26T09:23:50.014Z,15.30
2019-05-26T09:24:50.113Z,14.10
2019-05-26T09:25:50.016Z,14.10
2019-05-26T09:26:50.027Z,14.60
2019-05-26T09:27:49.969Z,15.10
2019-05-26T09:28:50.037Z,14.00
2019-05-26T09:29:49.940Z,13.30
2019-05-26T09:30:50.102Z,13.20
2019-05-26T09:31:50.051Z,10.80
2019-05-26T09:32:49.975Z,14.30
2019-05-26T09:33:49.899Z,12.20
2019-05-26T09:34:50.087Z,11.50
2019-05-26T09:35:49.925Z,11.60
2019-05-26T09:36:49.993Z,11.50
2019-05-26T09:37:49.862Z,14.90
2019-05-26T09:38:49.926Z,11.30
2019-05-26T09:39:49.896Z,13.80
2019-05-26T09:40:49.959Z,12.10
2019-05-26T09:41:49.843Z,12.80
2019-05-26T09:42:49.949Z,12.20
2019-05-26T09:43:49.792Z,11.80
2019-05-26T09:44:49.842Z,14.20
2019-05-26T09:45:49.839Z,13.30
2019-05-26T09:46:49.904Z,10.70
2019-05-26T09:47:49.759Z,11.20
2019-05-26T09:48:49.875Z,9.70
2019-05-26T09:49:49.799Z,13.30
2019-05-26T09:50:49.789Z,10.50
2019-05-26T09:51:49.743Z,10.70
2019-05-26T09:52:49.846Z,11.20
2019-05-26T09:54:01.203Z,10.70
2019-05-26T09:54:50.680Z,12.80
2019-05-26T09:55:49.731Z,11.20
2019-05-26T09:56:49.687Z,11.50
2019-05-26T09:57:49.738Z,11.50
2019-05-26T09:58:49.653Z,10.50
2019-05-26T09:59:49.649Z,11.10
2019-05-26T10:00:49.615Z,10.30
2019-05-26T10:01:49.650Z,10.70
2019-05-26T10:02:49.614Z,10.50
2019-05-26T10:03:49.668Z,10.60
2019-05-26T10:04:49.578Z,10.00
2019-05-26T10:05:49.578Z,8.80
2019-05-26T10:06:49.573Z,10.70
2019-05-26T10:07:49.809Z,10.10
2019-05-26T10:08:49.539Z,11.80
2019-05-26T10:09:49.704Z,10.50
2019-05-26T10:10:49.595Z,9.00
2019-05-26T10:12:50.647Z,9.30
2019-05-26T10:13:49.540Z,8.90
2019-05-26T10:14:49.460Z,11.20
2019-05-26T10:15:49.580Z,12.10
2019-05-26T10:16:49.434Z,9.30
2019-05-26T10:17:49.509Z,10.20
2019-05-26T10:18:49.413Z,10.00
2019-05-26T10:19:49.516Z,8.10
2019-05-26T10:20:49.392Z,7.50
2019-05-26T10:21:49.492Z,7.50
2019-05-26T10:22:49.369Z,8.90
2019-05-26T10:23:52.920Z,9.30
2019-05-26T10:24:49.347Z,8.60
2019-05-26T10:26:50.462Z,8.60
2019-05-26T10:27:49.494Z,7.60
2019-05-26T10:28:49.355Z,6.50
2019-05-26T10:29:49.352Z,7.50
2019-05-26T10:30:49.296Z,8.10
2019-05-26T10:31:49.352Z,7.40
2019-05-26T10:32:49.248Z,6.20
2019-05-26T10:33:49.309Z,5.90
2019-05-26T10:34:49.226Z,9.70
2019-05-26T10:35:49.297Z,7.80
2019-05-26T10:36:49.223Z,7.70
2019-05-26T10:37:49.306Z,5.80
2019-05-26T10:38:49.224Z,5.60
2019-05-26T10:39:49.217Z,7.20
2019-05-26T10:40:49.162Z,6.70
2019-05-26T10:41:49.221Z,6.70
2019-05-26T10:42:49.171Z,7.40
2019-05-26T10:43:49.551Z,12.30
2019-05-26T10:44:49.121Z,13.80
2019-05-26T10:45:49.265Z,9.30
2019-05-26T10:46:49.100Z,12.60
2019-05-26T10:47:49.220Z,9.90
2019-05-26T10:48:49.108Z,8.50
2019-05-26T10:49:49.172Z,10.90
2019-05-26T10:50:49.056Z,6.70
2019-05-26T10:51:49.089Z,6.80
2019-05-26T10:52:49.075Z,7.80
2019-05-26T10:53:49.299Z,8.20
2019-05-26T10:54:49.016Z,6.20
2019-05-26T10:55:49.129Z,6.60
2019-05-26T10:56:48.983Z,6.10
2019-05-26T10:57:49.045Z,6.90
2019-05-26T10:58:48.988Z,4.90
2019-05-26T10:59:49.103Z,5.60
2019-05-26T11:00:48.954Z,7.50
2019-05-26T11:01:49.048Z,6.90
2019-05-26T11:02:48.964Z,6.10
2019-05-26T11:03:49.088Z,6.40
2019-05-26T11:04:48.901Z,6.80
2019-05-26T11:05:48.987Z,6.80
2019-05-26T11:06:48.916Z,7.90
2019-05-26T11:07:49.014Z,7.00
2019-05-26T11:08:48.912Z,7.30
2019-05-26T11:09:48.903Z,8.30
2019-05-26T11:10:48.837Z,5.50
2019-05-26T11:11:49.059Z,6.40
2019-05-26T11:12:48.828Z,7.20
2019-05-26T11:14:01.950Z,9.40
2019-05-26T11:14:49.877Z,8.60
2019-05-26T11:15:48.935Z,6.40
2019-05-26T11:16:48.816Z,8.50
2019-05-26T11:17:48.854Z,7.10
2019-05-26T11:18:48.785Z,6.80
2019-05-26T11:19:48.805Z,6.20
2019-05-26T11:20:48.732Z,5.90
2019-05-26T11:21:48.781Z,7.90
2019-05-26T11:22:48.719Z,5.90
2019-05-26T11:23:48.809Z,7.50
2019-05-26T11:24:48.720Z,7.70
2019-05-26T11:25:48.705Z,9.10
2019-05-26T11:26:48.654Z,6.50
2019-05-26T11:27:48.716Z,6.40
2019-05-26T11:28:48.633Z,7.70
2019-05-26T11:29:48.763Z,7.00
2019-05-26T11:30:48.646Z,9.20
2019-05-26T11:31:48.669Z,7.50
2019-05-26T11:32:48.744Z,7.50
2019-05-26T11:33:48.687Z,6.30
2019-05-26T11:35:00.725Z,6.60
2019-05-26T11:35:49.553Z,5.90
2019-05-26T11:36:48.641Z,6.10
2019-05-26T11:37:48.539Z,5.70
2019-05-26T11:38:48.611Z,6.50
2019-05-26T11:39:48.553Z,7.00
2019-05-26T11:40:48.649Z,5.80
2019-05-26T11:41:54.694Z,6.30
2019-05-26T11:42:49.549Z,6.10
2019-05-26T11:43:48.467Z,6.70
2019-05-26T11:44:48.588Z,5.90
2019-05-26T11:45:48.647Z,7.20
2019-05-26T11:46:48.550Z,6.10
2019-05-26T11:47:48.428Z,7.30
2019-05-26T11:48:48.461Z,5.70
2019-05-26T11:49:48.425Z,5.90
2019-05-26T11:50:48.518Z,5.90
2019-05-26T11:51:48.386Z,6.80
2019-05-26T11:52:48.490Z,5.80
2019-05-26T11:53:48.358Z,5.50
2019-05-26T11:54:48.402Z,6.60
2019-05-26T11:55:48.361Z,6.00
2019-05-26T11:56:48.413Z,6.80
2019-05-26T11:57:48.321Z,5.60
2019-05-26T11:58:48.425Z,6.10
2019-05-26T11:59:48.288Z,9.50
2019-05-26T12:00:48.406Z,7.30
2019-05-26T12:01:48.289Z,6.40
2019-05-26T12:02:48.354Z,5.60
2019-05-26T12:03:48.439Z,6.20
2019-05-26T12:04:48.366Z,7.70
2019-05-26T12:05:48.322Z,8.90
2019-05-26T12:06:48.286Z,7.50
2019-05-26T12:07:48.204Z,5.90
2019-05-26T12:08:48.313Z,4.90
2019-05-26T12:09:48.184Z,9.40
2019-05-26T12:10:49.267Z,5.50
2019-05-26T12:11:48.162Z,5.80
2019-05-26T12:12:48.219Z,5.60
2019-05-26T12:13:48.235Z,6.10
2019-05-26T12:14:48.232Z,5.60
2019-05-26T12:15:48.206Z,5.30
2019-05-26T12:16:48.263Z,8.80
2019-05-26T12:17:48.099Z,6.40
2019-05-26T12:18:48.158Z,4.90
2019-05-26T12:19:48.152Z,5.20
2019-05-26T12:20:48.307Z,5.30
2019-05-26T12:21:48.138Z,7.80
2019-05-26T12:22:48.327Z,4.70
2019-05-26T12:23:48.045Z,6.70
2019-05-26T12:24:48.107Z,4.10
2019-05-26T12:25:48.018Z,5.30
2019-05-26T12:26:48.166Z,5.40
2019-05-26T12:27:48.009Z,3.50
2019-05-26T12:28:48.054Z,5.30
2019-05-26T12:29:47.967Z,4.10
2019-05-26T12:30:48.034Z,3.90
2019-05-26T12:31:47.979Z,6.70
2019-05-26T12:32:48.049Z,4.00
2019-05-26T12:33:47.977Z,6.10
2019-05-26T12:34:47.978Z,3.60
2019-05-26T12:35:47.913Z,4.30
2019-05-26T12:36:48.003Z,5.30
2019-05-26T12:37:48.653Z,10.30
2019-05-26T12:38:48.010Z,5.10
2019-05-26T12:39:47.865Z,7.80
2019-05-26T12:40:47.910Z,10.00
2019-05-26T12:41:47.873Z,6.50
2019-05-26T12:42:47.919Z,6.30
2019-05-26T12:43:47.813Z,5.80
2019-05-26T12:44:49.946Z,4.60
2019-05-26T12:45:47.796Z,6.40
2019-05-26T12:46:47.941Z,7.80
2019-05-26T12:47:47.799Z,6.40
2019-05-26T12:48:47.857Z,6.60
2019-05-26T12:49:47.751Z,5.90
2019-05-26T12:50:47.764Z,5.10
2019-05-26T12:51:47.756Z,6.40
2019-05-26T12:52:47.858Z,4.90
2019-05-26T12:53:47.908Z,4.60
2019-05-26T12:54:47.883Z,8.70
2019-05-26T12:55:47.701Z,7.60
2019-05-26T12:56:47.701Z,5.30
2019-05-26T12:57:47.730Z,7.40
2019-05-26T12:58:47.727Z,6.80
2019-05-26T12:59:47.643Z,6.70
2019-05-26T13:00:50.783Z,7.60
2019-05-26T13:01:48.624Z,6.70
2019-05-26T13:02:47.734Z,6.70
2019-05-26T13:03:47.614Z,7.80
2019-05-26T13:04:47.660Z,6.90
2019-05-26T13:05:47.580Z,6.40
2019-05-26T13:06:47.679Z,8.30
2019-05-26T13:07:47.580Z,7.20
2019-05-26T13:08:47.898Z,5.60
2019-05-26T13:09:47.539Z,7.00
2019-05-26T13:10:47.744Z,6.10
2019-05-26T13:11:47.534Z,5.80
2019-05-26T13:12:47.706Z,7.20
2019-05-26T13:13:47.496Z,5.40
2019-05-26T13:14:47.519Z,8.30
2019-05-26T13:15:47.461Z,6.70
2019-05-26T13:16:47.624Z,10.50
2019-05-26T13:17:47.434Z,7.90
2019-05-26T13:18:47.583Z,7.30
2019-05-26T13:19:47.424Z,6.50
2019-05-26T13:20:47.458Z,8.20
2019-05-26T13:21:47.421Z,6.20
2019-05-26T13:22:47.525Z,7.90
2019-05-26T13:23:47.397Z,6.90
2019-05-26T13:24:47.389Z,7.70
2019-05-26T13:25:47.358Z,6.70
2019-05-26T13:26:47.404Z,7.00
2019-05-26T13:27:47.333Z,8.00
2019-05-26T13:28:47.504Z,7.30